Time;durP1;ratioP1;P1;durP2;ratioP2;P2;SDS_P1;SDS_P2;PMS_P1;PMS_P2;Temp;Humidity;BMP_temperature;BMP_pressure;BME280_temperature;BME280_humidity;BME280_pressure;Samples;Min_cycle;Max_cycle;Signal;HPM_P1;HPM_P2
2021/06/11 00:00:50;;;;;;;6.25;5.70;;;17.30;74.30;;;;;;4999504;28;20038;-68
2021/06/11 00:03:16;;;;;;;6.30;5.70;;;17.20;74.20;;;;;;4994950;28;20030;-68
2021/06/11 00:05:42;;;;;;;7.60;5.82;;;17.20;74.20;;;;;;4998802;28;20026;-67
2021/06/11 00:08:08;;;;;;;6.43;5.82;;;17.20;74.20;;;;;;4996917;28;20044;-68
2021/06/11 00:10:34;;;;;;;6.57;5.88;;;17.20;74.20;;;;;;4991114;28;20633;-68
2021/06/11 00:13:00;;;;;;;6.90;6.28;;;17.20;74.20;;;;;;4995824;28;20493;-67
2021/06/11 00:15:26;;;;;;;6.53;5.93;;;17.20;74.10;;;;;;4996543;28;20042;-68
2021/06/11 00:17:52;;;;;;;6.68;6.03;;;17.20;73.90;;;;;;4996725;28;20105;-68
2021/06/11 00:20:19;;;;;;;8.48;5.57;;;17.20;73.80;;;;;;4997574;28;20167;-68
2021/06/11 00:22:45;;;;;;;7.68;5.68;;;17.20;73.80;;;;;;4993787;28;20038;-68
2021/06/11 00:25:14;;;;;;;6.10;5.50;;;17.30;73.70;;;;;;4992546;28;20057;-68
2021/06/11 00:27:40;;;;;;;6.18;5.57;;;17.30;73.60;;;;;;4994412;28;20113;-68
2021/06/11 00:30:08;;;;;;;5.63;5.13;;;17.30;73.50;;;;;;4994918;28;22318;-68
2021/06/11 00:32:34;;;;;;;5.93;5.43;;;17.30;73.40;;;;;;4995611;28;20034;-68
2021/06/11 00:35:00;;;;;;;6.70;5.45;;;17.30;73.30;;;;;;4999854;28;20042;-68
2021/06/11 00:37:25;;;;;;;6.00;5.40;;;17.20;73.20;;;;;;4997778;28;20033;-67
2021/06/11 00:39:51;;;;;;;7.72;5.72;;;17.20;73.20;;;;;;4998901;28;20054;-68
2021/06/11 00:42:17;;;;;;;5.88;5.38;;;17.20;73.30;;;;;;4996001;28;20197;-68
2021/06/11 00:44:43;;;;;;;6.28;5.68;;;17.10;73.30;;;;;;4994021;28;20038;-68
2021/06/11 00:47:08;;;;;;;6.53;6.03;;;17.00;73.40;;;;;;4995963;28;20045;-68
2021/06/11 00:49:34;;;;;;;5.82;5.25;;;17.00;73.50;;;;;;4996119;28;20088;-68
2021/06/11 00:52:00;;;;;;;6.32;5.50;;;16.90;73.80;;;;;;4998386;28;20409;-68
2021/06/11 00:54:25;;;;;;;6.07;5.53;;;16.90;74.00;;;;;;4995729;28;20053;-68
2021/06/11 00:56:51;;;;;;;5.57;5.00;;;16.80;74.20;;;;;;4999029;28;21630;-68
2021/06/11 00:59:18;;;;;;;6.18;5.50;;;16.80;74.30;;;;;;5001439;28;20743;-68
2021/06/11 01:01:44;;;;;;;6.13;5.53;;;16.70;74.40;;;;;;4995603;28;20535;-68
2021/06/11 01:04:10;;;;;;;5.35;4.95;;;16.70;74.40;;;;;;4999324;28;20038;-68
2021/06/11 01:06:40;;;;;;;5.47;4.95;;;16.70;74.50;;;;;;4999831;28;20140;-68
2021/06/11 01:09:06;;;;;;;5.65;5.10;;;16.70;74.70;;;;;;5000466;28;20042;-68
2021/06/11 01:11:33;;;;;;;6.38;5.70;;;16.70;74.40;;;;;;4995124;28;20044;-68
2021/06/11 01:13:59;;;;;;;5.63;5.13;;;16.70;74.30;;;;;;4998624;28;20532;-67
2021/06/11 01:16:24;;;;;;;6.82;5.82;;;16.70;74.00;;;;;;5000141;28;20034;-68
2021/06/11 01:18:50;;;;;;;6.93;5.63;;;16.70;74.00;;;;;;4996496;28;20104;-68
2021/06/11 01:21:20;;;;;;;5.65;5.15;;;16.80;74.00;;;;;;4998613;28;20034;-68
2021/06/11 01:24:01;;;;;;;6.35;5.78;;;16.70;73.90;;;;;;4998821;28;20170;-67
2021/06/11 01:26:35;;;;;;;6.53;5.53;;;16.70;74.30;;;;;;4994964;28;20121;-68
2021/06/11 01:29:05;;;;;;;6.07;5.47;;;16.60;73.90;;;;;;4996263;28;20105;-68
2021/06/11 01:31:33;;;;;;;6.53;5.93;;;16.60;74.00;;;;;;4996927;28;20062;-67
2021/06/11 01:34:09;;;;;;;7.40;5.95;;;16.50;74.00;;;;;;4994942;28;20034;-68
2021/06/11 01:36:46;;;;;;;6.35;5.75;;;16.50;74.40;;;;;;5000985;28;20030;-68
2021/06/11 01:39:14;;;;;;;5.68;5.20;;;16.50;74.60;;;;;;4996527;28;20038;-67
2021/06/11 01:41:40;;;;;;;5.90;5.40;;;16.40;74.10;;;;;;4998607;28;20041;-68
2021/06/11 01:44:09;;;;;;;6.80;6.00;;;16.40;74.20;;;;;;4996916;28;20520;-68
2021/06/11 01:46:35;;;;;;;6.57;5.82;;;16.40;75.30;;;;;;4998082;28;20432;-68
2021/06/11 01:49:03;;;;;;;6.40;5.90;;;16.40;74.50;;;;;;4993335;28;20034;-68
2021/06/11 01:51:30;;;;;;;6.40;5.80;;;16.30;74.70;;;;;;4998003;28;20142;-67
2021/06/11 01:53:59;;;;;;;6.70;5.97;;;16.30;74.90;;;;;;4996925;28;20948;-68
2021/06/11 01:56:25;;;;;;;6.93;5.68;;;16.20;74.80;;;;;;4996700;28;20838;-68
2021/06/11 01:58:51;;;;;;;6.53;5.65;;;16.20;75.00;;;;;;4999844;28;20056;-68
2021/06/11 02:01:18;;;;;;;6.90;5.65;;;16.10;74.90;;;;;;4997388;28;20113;-68
2021/06/11 02:03:45;;;;;;;6.90;6.20;;;16.10;75.00;;;;;;4998916;28;20533;-67
2021/06/11 02:06:15;;;;;;;6.80;6.15;;;16.10;75.30;;;;;;4996755;28;20060;-67
2021/06/11 02:08:43;;;;;;;7.38;5.78;;;16.00;75.40;;;;;;5004027;28;20038;-67
2021/06/11 02:11:09;;;;;;;6.45;5.78;;;16.00;75.50;;;;;;4992000;28;20037;-68
2021/06/11 02:13:38;;;;;;;6.00;5.50;;;16.00;76.50;;;;;;4997039;28;20030;-68
2021/06/11 02:16:05;;;;;;;6.32;5.75;;;16.00;75.60;;;;;;5000261;28;20029;-67
2021/06/11 02:18:32;;;;;;;6.88;6.07;;;16.00;75.60;;;;;;4999934;28;20061;-68
2021/06/11 02:20:58;;;;;;;6.20;5.70;;;16.00;75.40;;;;;;4997067;28;20053;-67
2021/06/11 02:23:24;;;;;;;7.63;5.65;;;16.00;75.30;;;;;;4995139;28;20405;-67
2021/06/11 02:25:50;;;;;;;7.63;6.07;;;16.00;75.30;;;;;;4994949;28;20084;-68
2021/06/11 02:28:16;;;;;;;8.75;6.10;;;16.00;75.30;;;;;;4998393;28;20122;-67
2021/06/11 02:30:43;;;;;;;6.75;6.13;;;16.00;75.40;;;;;;4997518;28;20041;-68
2021/06/11 02:33:13;;;;;;;6.53;5.93;;;16.00;75.40;;;;;;4994521;28;21898;-68
2021/06/11 02:35:39;;;;;;;6.40;5.80;;;16.00;75.50;;;;;;4997042;28;20034;-68
2021/06/11 02:38:05;;;;;;;6.72;6.00;;;16.00;75.40;;;;;;4995224;28;20034;-68
2021/06/11 02:40:30;;;;;;;7.60;6.28;;;16.00;75.40;;;;;;4993289;28;20042;-68
2021/06/11 02:43:06;;;;;;;6.82;6.13;;;16.00;75.40;;;;;;5012635;28;20129;-67
2021/06/11 02:45:37;;;;;;;7.57;6.78;;;15.90;75.80;;;;;;5003401;28;20410;-68
2021/06/11 02:48:25;;;;;;;7.85;6.40;;;15.90;75.50;;;;;;4998317;28;20601;-67
2021/06/11 02:51:03;;;;;;;12.07;6.25;;;15.90;75.80;;;;;;4997016;28;20040;-67
2021/06/11 02:53:30;;;;;;;6.80;6.18;;;15.90;75.80;;;;;;5000914;28;20034;-68
2021/06/11 02:56:00;;;;;;;6.68;6.07;;;15.90;75.30;;;;;;4995883;28;20042;-68
2021/06/11 02:58:36;;;;;;;7.90;6.65;;;15.90;75.40;;;;;;4994752;28;20038;-68
2021/06/11 03:01:03;;;;;;;7.07;6.38;;;15.90;75.60;;;;;;4997095;28;20528;-68
2021/06/11 03:03:34;;;;;;;6.55;5.95;;;15.80;75.20;;;;;;4996623;28;20052;-68
2021/06/11 03:06:02;;;;;;;10.65;6.43;;;15.80;75.30;;;;;;4999462;28;20029;-68
2021/06/11 03:08:32;;;;;;;9.98;6.35;;;15.70;75.30;;;;;;4997190;28;20038;-67
2021/06/11 03:11:04;;;;;;;9.73;6.40;;;15.80;75.40;;;;;;4992506;28;20032;-67
2021/06/11 03:13:31;;;;;;;7.45;6.57;;;15.80;75.40;;;;;;4996486;28;20035;-67
2021/06/11 03:15:58;;;;;;;8.25;6.57;;;15.80;75.40;;;;;;4997165;28;20034;-68
2021/06/11 03:18:34;;;;;;;7.75;6.95;;;15.80;75.60;;;;;;4995231;28;20037;-68
2021/06/11 03:21:11;;;;;;;8.05;7.15;;;15.80;76.10;;;;;;4997761;28;20398;-67
2021/06/11 03:23:58;;;;;;;7.75;7.05;;;15.80;75.70;;;;;;4995974;28;20038;-68
2021/06/11 03:26:28;;;;;;;8.05;6.80;;;15.80;75.90;;;;;;4994083;28;20503;-70
2021/06/11 03:28:56;;;;;;;7.82;6.80;;;15.80;75.60;;;;;;4996034;28;20180;-68
2021/06/11 03:31:34;;;;;;;8.25;6.88;;;15.80;75.60;;;;;;4998057;28;20128;-68
2021/06/11 03:34:08;;;;;;;8.20;6.40;;;15.80;75.70;;;;;;4994439;28;20413;-68
2021/06/11 03:36:40;;;;;;;8.35;6.90;;;15.70;75.70;;;;;;4997254;28;20528;-67
2021/06/11 03:39:09;;;;;;;9.25;7.05;;;15.70;75.80;;;;;;4993721;28;20121;-68
2021/06/11 03:41:36;;;;;;;8.23;6.63;;;15.70;75.80;;;;;;4992112;28;20026;-67
2021/06/11 03:44:09;;;;;;;7.43;6.72;;;15.70;76.80;;;;;;4993511;28;20030;-67
2021/06/11 03:46:38;;;;;;;8.63;6.90;;;15.60;76.50;;;;;;4994628;28;20040;-67
2021/06/11 03:49:04;;;;;;;8.85;6.90;;;15.60;76.30;;;;;;4995294;28;20030;-67
2021/06/11 03:51:31;;;;;;;8.95;6.68;;;15.60;76.20;;;;;;4995418;28;20030;-68
2021/06/11 03:53:59;;;;;;;7.30;6.63;;;15.50;76.20;;;;;;4994930;28;21138;-67
2021/06/11 03:56:26;;;;;;;7.93;6.90;;;15.50;76.40;;;;;;4996005;28;20030;-68
2021/06/11 03:58:54;;;;;;;8.63;6.53;;;15.50;76.50;;;;;;4993409;28;20030;-67
2021/06/11 04:01:24;;;;;;;8.43;6.72;;;15.50;76.60;;;;;;4994281;28;20026;-68
2021/06/11 04:03:50;;;;;;;8.68;6.60;;;15.50;76.70;;;;;;4995237;28;20069;-67
2021/06/11 04:06:20;;;;;;;7.35;6.43;;;15.50;76.70;;;;;;4992600;28;20036;-68
2021/06/11 04:08:46;;;;;;;7.15;6.43;;;15.50;76.80;;;;;;4991611;28;20036;-67
2021/06/11 04:11:16;;;;;;;7.72;6.28;;;15.50;76.80;;;;;;4989519;28;20034;-67
2021/06/11 04:13:55;;;;;;;7.50;6.70;;;15.60;77.00;;;;;;4992887;28;20453;-67
2021/06/11 04:16:27;;;;;;;8.57;6.97;;;15.60;77.60;;;;;;4991767;28;20056;-67
2021/06/11 04:18:55;;;;;;;8.90;7.45;;;15.60;77.10;;;;;;5010339;28;20022;-67
2021/06/11 04:21:22;;;;;;;7.72;6.93;;;15.70;77.20;;;;;;4997483;28;20816;-68
2021/06/11 04:23:55;;;;;;;10.38;7.57;;;15.70;77.20;;;;;;5009583;28;20363;-67
2021/06/11 04:26:26;;;;;;;12.05;7.78;;;15.70;77.30;;;;;;4997570;28;20662;-68
2021/06/11 04:28:54;;;;;;;8.52;7.18;;;15.70;77.40;;;;;;4999424;28;20445;-67
2021/06/11 04:31:19;;;;;;;8.82;7.75;;;15.80;77.20;;;;;;4992459;28;20066;-67
2021/06/11 04:33:45;;;;;;;8.43;7.50;;;15.80;77.20;;;;;;4995028;28;20057;-69
2021/06/11 04:36:11;;;;;;;9.30;7.32;;;15.80;77.30;;;;;;5001768;28;20026;-67
2021/06/11 04:39:00;;;;;;;9.80;7.47;;;15.90;77.30;;;;;;5005721;28;20406;-69
2021/06/11 04:41:27;;;;;;;7.30;6.53;;;15.90;77.90;;;;;;5005078;28;20035;-68
2021/06/11 04:43:56;;;;;;;11.60;7.57;;;16.00;77.30;;;;;;4999281;28;20524;-69
2021/06/11 04:46:22;;;;;;;15.50;10.82;;;16.00;77.50;;;;;;5003887;28;20030;-69
2021/06/11 04:48:47;;;;;;;23.30;14.98;;;16.00;77.30;;;;;;5000147;28;20531;-68
2021/06/11 04:51:13;;;;;;;14.32;10.18;;;16.00;77.20;;;;;;5002486;28;20121;-69
2021/06/11 04:53:39;;;;;;;10.13;8.38;;;16.10;77.20;;;;;;5006553;28;20030;-69
2021/06/11 04:56:08;;;;;;;9.65;7.65;;;16.10;77.30;;;;;;5002491;28;20026;-68
2021/06/11 04:58:38;;;;;;;9.52;7.45;;;16.10;77.30;;;;;;4999024;28;20076;-68
2021/06/11 05:01:08;;;;;;;8.15;7.35;;;16.20;77.50;;;;;;5000332;28;20090;-68
2021/06/11 05:03:35;;;;;;;8.80;7.30;;;16.20;77.60;;;;;;4998647;28;20472;-68
2021/06/11 05:06:01;;;;;;;9.57;7.50;;;16.20;77.50;;;;;;5000619;28;20084;-69
2021/06/11 05:08:28;;;;;;;30.90;17.73;;;16.30;77.50;;;;;;5000122;28;20034;-68
2021/06/11 05:10:54;;;;;;;23.83;14.07;;;16.30;77.50;;;;;;5000624;28;20072;-68
2021/06/11 05:13:20;;;;;;;15.55;10.75;;;16.40;77.50;;;;;;4997556;28;20041;-68
2021/06/11 05:15:46;;;;;;;12.98;8.75;;;16.40;77.40;;;;;;5000106;28;20039;-68
2021/06/11 05:18:12;;;;;;;8.77;7.85;;;16.50;77.50;;;;;;5000616;28;20048;-68
2021/06/11 05:20:38;;;;;;;10.93;8.40;;;16.50;77.60;;;;;;4999461;28;20065;-68
2021/06/11 05:23:05;;;;;;;10.02;7.97;;;16.60;77.70;;;;;;4999989;28;20034;-69
2021/06/11 05:25:30;;;;;;;9.23;7.88;;;16.60;77.90;;;;;;4998886;28;20027;-68
2021/06/11 05:27:56;;;;;;;8.88;7.97;;;16.70;77.90;;;;;;5000310;28;20042;-68
2021/06/11 05:30:23;;;;;;;11.40;8.15;;;16.70;78.00;;;;;;4998407;28;20044;-69
2021/06/11 05:32:49;;;;;;;8.93;8.02;;;16.80;78.00;;;;;;4997316;28;20502;-68
2021/06/11 05:35:15;;;;;;;8.68;7.32;;;16.90;78.00;;;;;;5000963;28;20052;-68
2021/06/11 05:37:41;;;;;;;10.13;8.13;;;16.90;77.90;;;;;;4999944;28;20101;-68
2021/06/11 05:40:07;;;;;;;11.60;8.40;;;17.00;77.90;;;;;;4999366;28;20031;-68
2021/06/11 05:42:33;;;;;;;8.88;7.97;;;17.00;77.70;;;;;;4997776;28;20090;-68
2021/06/11 05:44:59;;;;;;;10.60;7.70;;;17.10;77.90;;;;;;4999265;28;20065;-68
2021/06/11 05:47:25;;;;;;;8.75;7.50;;;17.10;77.80;;;;;;4998995;28;20056;-68
2021/06/11 05:49:50;;;;;;;9.02;8.07;;;17.20;77.80;;;;;;4999762;28;20034;-69
2021/06/11 05:52:17;;;;;;;11.05;8.18;;;17.30;77.70;;;;;;5000714;28;20046;-68
2021/06/11 05:54:43;;;;;;;10.05;8.20;;;17.30;77.60;;;;;;5001108;28;20128;-69
2021/06/11 05:57:08;;;;;;;10.70;7.97;;;17.40;77.70;;;;;;4999796;28;20117;-69
2021/06/11 05:59:34;;;;;;;9.32;7.75;;;17.50;77.80;;;;;;4999236;28;20038;-68
2021/06/11 06:02:00;;;;;;;15.98;8.52;;;17.50;77.70;;;;;;5000258;28;20034;-69
2021/06/11 06:04:25;;;;;;;9.77;8.20;;;17.60;77.70;;;;;;4997944;28;20064;-68
2021/06/11 06:06:51;;;;;;;9.75;8.40;;;17.60;77.60;;;;;;4999873;28;20064;-69
2021/06/11 06:09:17;;;;;;;9.20;8.13;;;17.70;77.50;;;;;;4999950;28;20495;-69
2021/06/11 06:11:42;;;;;;;15.10;7.85;;;17.80;77.50;;;;;;4998700;28;20379;-68
2021/06/11 06:14:09;;;;;;;11.90;8.48;;;17.90;77.30;;;;;;4999983;28;20045;-68
2021/06/11 06:16:36;;;;;;;12.10;7.97;;;18.00;77.30;;;;;;4998658;28;20085;-68
2021/06/11 06:19:03;;;;;;;11.20;7.95;;;18.10;77.30;;;;;;5012789;28;20074;-68
2021/06/11 06:21:30;;;;;;;10.80;7.53;;;18.20;76.70;;;;;;4994138;28;20030;-67
2021/06/11 06:23:56;;;;;;;8.80;7.57;;;18.20;76.50;;;;;;5000567;28;20722;-68
2021/06/11 06:26:21;;;;;;;11.10;7.88;;;18.30;76.80;;;;;;4998751;28;20076;-68
2021/06/11 06:28:47;;;;;;;10.13;7.07;;;18.40;76.60;;;;;;5000758;28;20026;-68
2021/06/11 06:31:13;;;;;;;9.38;7.07;;;18.50;76.20;;;;;;5000450;28;20547;-68
2021/06/11 06:33:38;;;;;;;9.30;7.45;;;18.60;76.20;;;;;;4998231;28;20065;-68
2021/06/11 06:36:06;;;;;;;8.02;7.00;;;18.80;75.80;;;;;;4999231;28;20034;-68
2021/06/11 06:38:32;;;;;;;13.65;7.63;;;18.80;75.60;;;;;;4998421;28;20655;-68
2021/06/11 06:41:00;;;;;;;7.80;6.90;;;18.90;75.30;;;;;;4997471;28;20368;-68
2021/06/11 06:43:26;;;;;;;10.77;6.82;;;19.00;75.30;;;;;;4998317;28;20030;-68
2021/06/11 06:45:52;;;;;;;6.45;5.85;;;19.10;75.10;;;;;;4998555;28;20038;-68
2021/06/11 06:48:18;;;;;;;7.18;6.40;;;19.20;74.80;;;;;;4999244;28;20096;-68
2021/06/11 06:50:44;;;;;;;7.03;6.28;;;19.30;75.50;;;;;;4998014;28;20513;-68
2021/06/11 06:53:11;;;;;;;8.32;5.82;;;19.30;74.20;;;;;;4999812;28;20038;-68
2021/06/11 06:55:38;;;;;;;8.18;6.72;;;19.40;74.00;;;;;;4998326;28;20051;-68
2021/06/11 06:58:04;;;;;;;6.97;6.35;;;19.50;73.70;;;;;;5001167;28;20536;-68
2021/06/11 07:00:29;;;;;;;9.50;6.22;;;19.60;73.50;;;;;;4995591;28;20040;-68
2021/06/11 07:02:55;;;;;;;7.55;6.50;;;19.70;73.30;;;;;;4988808;28;20088;-68
2021/06/11 07:05:20;;;;;;;6.75;6.05;;;19.80;73.00;;;;;;4998514;28;20498;-68
2021/06/11 07:07:46;;;;;;;7.90;6.30;;;19.90;72.50;;;;;;5004637;28;20514;-68
2021/06/11 07:10:12;;;;;;;6.82;6.22;;;19.90;72.00;;;;;;5004610;28;20501;-68
2021/06/11 07:12:38;;;;;;;7.10;6.25;;;20.00;71.60;;;;;;4996244;28;20060;-67
2021/06/11 07:15:05;;;;;;;6.57;5.97;;;20.10;71.50;;;;;;4997091;28;20494;-68
2021/06/11 07:17:31;;;;;;;8.02;6.40;;;20.20;71.30;;;;;;4997524;28;20034;-68
2021/06/11 07:19:57;;;;;;;7.45;6.47;;;20.30;71.10;;;;;;4998521;28;20405;-68
2021/06/11 07:22:22;;;;;;;6.50;5.90;;;20.40;71.60;;;;;;4997243;28;20034;-68
2021/06/11 07:24:48;;;;;;;7.15;6.28;;;20.50;70.60;;;;;;5002646;28;20041;-68
2021/06/11 07:27:14;;;;;;;8.23;7.03;;;20.50;70.70;;;;;;4998273;28;20030;-68
2021/06/11 07:29:44;;;;;;;7.45;6.72;;;20.60;70.40;;;;;;4997323;28;20417;-68
2021/06/11 07:32:14;;;;;;;7.90;6.43;;;20.70;70.10;;;;;;4997614;28;20108;-68
2021/06/11 07:34:40;;;;;;;7.25;6.43;;;20.80;70.00;;;;;;4995364;28;20391;-68
2021/06/11 07:37:06;;;;;;;7.18;6.28;;;20.90;70.90;;;;;;4997510;28;20413;-68
2021/06/11 07:39:32;;;;;;;8.60;6.32;;;20.90;70.20;;;;;;4997178;28;20034;-68
2021/06/11 07:41:58;;;;;;;7.75;6.57;;;21.00;69.90;;;;;;4997500;28;20091;-68
2021/06/11 07:44:24;;;;;;;6.80;6.10;;;21.10;69.90;;;;;;4994450;28;20027;-68
2021/06/11 07:46:50;;;;;;;7.75;6.63;;;21.20;69.40;;;;;;4998723;28;20030;-68
2021/06/11 07:49:16;;;;;;;7.85;7.15;;;21.30;69.00;;;;;;4996151;28;20507;-68
2021/06/11 07:51:42;;;;;;;7.32;6.72;;;21.40;68.10;;;;;;4995494;28;20022;-68
2021/06/11 07:54:08;;;;;;;7.70;7.03;;;21.50;68.00;;;;;;4995680;28;20077;-68
2021/06/11 07:56:37;;;;;;;6.97;6.38;;;21.60;67.90;;;;;;4996126;28;20040;-68
2021/06/11 07:59:03;;;;;;;7.35;6.65;;;21.70;67.90;;;;;;4996612;28;20069;-68
2021/06/11 08:01:31;;;;;;;8.52;7.72;;;21.80;67.80;;;;;;4996474;28;20038;-68
2021/06/11 08:03:56;;;;;;;8.35;7.55;;;21.80;66.90;;;;;;4998386;28;20041;-68
2021/06/11 08:06:22;;;;;;;8.60;7.70;;;21.90;66.90;;;;;;4994582;28;20105;-68
2021/06/11 08:08:48;;;;;;;8.38;7.57;;;22.00;67.30;;;;;;4994208;28;20052;-68
2021/06/11 08:11:14;;;;;;;8.68;7.78;;;22.10;66.80;;;;;;4994954;28;20070;-68
2021/06/11 08:13:40;;;;;;;8.25;7.45;;;22.20;67.20;;;;;;4997000;28;20038;-68
2021/06/11 08:16:05;;;;;;;8.65;7.85;;;22.30;67.10;;;;;;4995735;28;20084;-68
2021/06/11 08:18:31;;;;;;;8.63;7.72;;;22.40;66.60;;;;;;4996896;28;20096;-69
2021/06/11 08:20:57;;;;;;;8.32;7.60;;;22.50;66.30;;;;;;4996597;28;20130;-68
2021/06/11 08:23:23;;;;;;;8.50;7.50;;;22.60;66.30;;;;;;5010153;28;20038;-69
2021/06/11 08:25:48;;;;;;;8.77;7.82;;;22.80;66.40;;;;;;4996266;28;20062;-69
2021/06/11 08:28:14;;;;;;;11.10;8.75;;;22.90;65.70;;;;;;4996224;28;20120;-68
2021/06/11 08:30:39;;;;;;;9.27;8.40;;;23.00;64.80;;;;;;4996024;28;20416;-68
2021/06/11 08:33:06;;;;;;;9.25;8.23;;;23.20;64.60;;;;;;4994752;28;20073;-68
2021/06/11 08:35:33;;;;;;;8.07;7.25;;;23.30;64.30;;;;;;4997390;28;20026;-69
2021/06/11 08:37:59;;;;;;;7.88;7.00;;;23.40;63.50;;;;;;4995549;28;20034;-69
2021/06/11 08:40:26;;;;;;;8.98;8.07;;;23.50;63.40;;;;;;4997224;28;20545;-69
2021/06/11 08:42:52;;;;;;;9.00;8.10;;;23.50;62.70;;;;;;4997907;28;20358;-68
2021/06/11 08:45:19;;;;;;;8.77;7.88;;;23.70;62.40;;;;;;4996540;28;20061;-68
2021/06/11 08:47:55;;;;;;;8.00;7.20;;;23.70;62.50;;;;;;4998068;28;20035;-69
2021/06/11 08:50:27;;;;;;;8.13;7.43;;;23.80;62.80;;;;;;5002682;28;20104;-68
2021/06/11 08:52:53;;;;;;;8.32;7.55;;;23.90;62.10;;;;;;5002812;28;20514;-69
2021/06/11 08:55:19;;;;;;;8.95;7.57;;;24.00;62.00;;;;;;4996734;28;20073;-69
2021/06/11 08:57:46;;;;;;;7.78;7.07;;;24.10;61.80;;;;;;4998098;28;20030;-68
2021/06/11 09:00:12;;;;;;;7.53;6.85;;;24.20;61.90;;;;;;4996863;28;20038;-69
2021/06/11 09:03:27;;;;;;;8.82;6.47;;;24.30;60.60;;;;;;4996400;28;20041;-69
2021/06/11 09:05:55;;;;;;;8.23;7.53;;;24.40;59.60;;;;;;4998612;28;20062;-69
2021/06/11 09:08:26;;;;;;;7.93;7.15;;;24.60;60.30;;;;;;5000876;28;20446;-68
2021/06/11 09:11:07;;;;;;;7.22;6.63;;;24.60;60.10;;;;;;4998724;28;20037;-68
2021/06/11 09:13:33;;;;;;;7.88;7.05;;;24.70;59.70;;;;;;4997822;28;20461;-69
2021/06/11 09:16:24;;;;;;;7.40;6.75;;;24.80;59.70;;;;;;5004499;28;20033;-69
2021/06/11 09:18:56;;;;;;;6.93;6.32;;;24.90;59.00;;;;;;5000875;28;20030;-69
2021/06/11 09:21:38;;;;;;;6.90;5.88;;;25.00;59.10;;;;;;4999622;28;20038;-69
2021/06/11 09:24:21;;;;;;;6.78;6.18;;;25.10;57.60;;;;;;5006531;28;20045;-69
2021/06/11 09:27:04;;;;;;;7.72;5.63;;;25.20;57.70;;;;;;4999289;28;20046;-69
2021/06/11 09:29:44;;;;;;;5.60;5.10;;;25.30;55.80;;;;;;5006339;28;20414;-69
2021/06/11 09:32:28;;;;;;;6.25;5.60;;;25.40;55.80;;;;;;5001047;28;20042;-69
2021/06/11 09:35:03;;;;;;;5.47;4.97;;;25.50;53.70;;;;;;4996084;28;20038;-68
2021/06/11 09:37:36;;;;;;;5.30;4.90;;;25.50;54.90;;;;;;5000233;28;20035;-69
2021/06/11 09:40:07;;;;;;;5.30;4.90;;;25.50;55.00;;;;;;4998910;28;20160;-68
2021/06/11 09:42:36;;;;;;;5.47;4.97;;;25.50;54.50;;;;;;4999154;28;20027;-68
2021/06/11 09:45:09;;;;;;;6.22;5.57;;;25.60;53.60;;;;;;4999068;28;20524;-68
2021/06/11 09:47:37;;;;;;;5.40;4.90;;;25.60;52.00;;;;;;5000304;28;20137;-69
2021/06/11 09:50:05;;;;;;;4.63;4.22;;;25.60;52.60;;;;;;4999045;28;20068;-68
2021/06/11 09:52:37;;;;;;;4.88;4.43;;;25.60;53.60;;;;;;4998817;28;21039;-68
2021/06/11 09:55:05;;;;;;;5.63;3.88;;;25.70;53.20;;;;;;4997039;28;20045;-69
2021/06/11 09:57:33;;;;;;;4.53;4.13;;;25.70;53.60;;;;;;4998127;28;20038;-69
2021/06/11 10:00:00;;;;;;;8.82;4.78;;;25.80;53.70;;;;;;4999876;28;20534;-69
2021/06/11 10:02:25;;;;;;;5.93;5.20;;;25.90;52.70;;;;;;5002882;28;20038;-69
2021/06/11 10:04:54;;;;;;;5.65;4.57;;;25.90;52.80;;;;;;4998554;28;20130;-69
2021/06/11 10:07:20;;;;;;;5.30;4.90;;;26.00;53.10;;;;;;4998311;28;20035;-69
2021/06/11 10:09:45;;;;;;;6.20;5.70;;;26.00;52.60;;;;;;4999547;28;20029;-69
2021/06/11 10:12:11;;;;;;;4.53;4.22;;;26.10;50.90;;;;;;4998358;28;20096;-69
2021/06/11 10:14:37;;;;;;;5.47;5.07;;;26.10;52.10;;;;;;4998708;28;20038;-69
2021/06/11 10:17:06;;;;;;;4.65;4.28;;;26.10;50.60;;;;;;5004892;28;20174;-69
2021/06/11 10:19:31;;;;;;;4.82;4.30;;;26.20;50.10;;;;;;5000424;28;20038;-69
2021/06/11 10:21:57;;;;;;;5.38;4.88;;;26.20;51.50;;;;;;5000355;28;20037;-69
2021/06/11 10:24:23;;;;;;;4.93;4.43;;;26.20;50.80;;;;;;5005397;28;20085;-69
2021/06/11 10:26:50;;;;;;;4.72;4.32;;;26.20;50.60;;;;;;5004432;28;20027;-69
2021/06/11 10:29:18;;;;;;;4.60;3.97;;;26.20;51.10;;;;;;4999650;28;20038;-69
2021/06/11 10:31:45;;;;;;;5.25;4.75;;;26.30;52.00;;;;;;4999429;28;20057;-69
2021/06/11 10:34:11;;;;;;;4.22;3.92;;;26.40;51.00;;;;;;4999534;28;20049;-69
2021/06/11 10:36:44;;;;;;;3.92;3.60;;;26.50;51.30;;;;;;4998086;28;20591;-69
2021/06/11 10:39:10;;;;;;;4.18;3.80;;;26.60;51.30;;;;;;4999934;28;20034;-69
2021/06/11 10:41:57;;;;;;;4.22;3.92;;;26.60;49.70;;;;;;4999140;28;20034;-69
2021/06/11 10:44:36;;;;;;;3.60;3.40;;;26.80;48.50;;;;;;4998841;28;20037;-69
2021/06/11 10:47:17;;;;;;;3.95;3.50;;;26.90;47.60;;;;;;4997992;28;20471;-69
2021/06/11 10:50:07;;;;;;;3.60;3.30;;;26.90;47.90;;;;;;4997676;28;20038;-69
2021/06/11 10:52:33;;;;;;;3.10;2.90;;;27.00;47.10;;;;;;4989689;28;20935;-69
2021/06/11 10:55:14;;;;;;;3.15;2.95;;;27.10;48.50;;;;;;4999924;28;20033;-69
2021/06/11 10:57:41;;;;;;;3.00;2.80;;;27.20;46.60;;;;;;4998583;28;20041;-69
2021/06/11 11:00:26;;;;;;;3.13;2.83;;;27.20;47.20;;;;;;4995131;28;20034;-69
2021/06/11 11:03:00;;;;;;;2.85;2.65;;;27.30;46.60;;;;;;4995969;28;20077;-69
2021/06/11 11:05:32;;;;;;;3.40;3.10;;;27.40;47.00;;;;;;5002317;28;20126;-69
2021/06/11 11:07:59;;;;;;;3.60;3.30;;;27.40;45.40;;;;;;4999500;28;20435;-69
2021/06/11 11:10:34;;;;;;;3.15;2.95;;;27.40;44.40;;;;;;4996435;28;20277;-69
2021/06/11 11:13:06;;;;;;;2.65;2.50;;;27.40;44.10;;;;;;4998589;28;20117;-69
2021/06/11 11:15:36;;;;;;;2.70;2.53;;;27.30;45.20;;;;;;4996401;28;20598;-69
2021/06/11 11:18:04;;;;;;;2.25;2.15;;;27.30;44.50;;;;;;4998093;28;20145;-69
2021/06/11 11:20:31;;;;;;;2.42;2.30;;;27.40;44.80;;;;;;4998244;28;20045;-69
2021/06/11 11:23:01;;;;;;;4.75;3.15;;;27.40;44.30;;;;;;4998313;28;20624;-69
2021/06/11 11:25:28;;;;;;;3.47;3.28;;;27.50;45.00;;;;;;4998705;28;20038;-70
2021/06/11 11:27:55;;;;;;;3.97;3.50;;;27.50;44.60;;;;;;4995955;28;20521;-69
2021/06/11 11:30:25;;;;;;;4.00;3.20;;;27.60;44.50;;;;;;4995999;28;20501;-69
2021/06/11 11:32:52;;;;;;;3.63;3.33;;;27.60;44.40;;;;;;4996354;28;20604;-69
2021/06/11 11:35:19;;;;;;;3.95;3.60;;;27.60;44.20;;;;;;4997074;28;20035;-69
2021/06/11 11:37:45;;;;;;;3.60;3.38;;;27.60;44.50;;;;;;4997981;28;20076;-69
2021/06/11 11:40:11;;;;;;;3.40;3.10;;;27.60;43.70;;;;;;4996717;28;20033;-70
2021/06/11 11:42:37;;;;;;;3.13;2.92;;;27.50;44.30;;;;;;5001948;28;20030;-69
2021/06/11 11:45:04;;;;;;;3.20;2.92;;;27.50;44.40;;;;;;4994281;28;20119;-69
2021/06/11 11:47:30;;;;;;;3.30;3.00;;;27.50;44.20;;;;;;4997658;28;20033;-69
2021/06/11 11:49:55;;;;;;;3.13;2.83;;;27.60;43.90;;;;;;4997221;28;20374;-69
2021/06/11 11:52:21;;;;;;;3.20;3.00;;;27.60;43.70;;;;;;4995606;28;20038;-69
2021/06/11 11:54:47;;;;;;;2.90;2.70;;;27.70;43.40;;;;;;4997190;28;20122;-69
2021/06/11 11:57:12;;;;;;;3.17;2.70;;;27.70;43.30;;;;;;4997451;28;20034;-70
2021/06/11 11:59:38;;;;;;;3.05;2.80;;;27.80;42.90;;;;;;4997680;28;20122;-69
2021/06/11 12:02:07;;;;;;;3.00;2.78;;;27.80;43.50;;;;;;4997572;28;20037;-69
2021/06/11 12:04:33;;;;;;;3.42;3.13;;;27.80;42.90;;;;;;4996619;28;20037;-70
2021/06/11 12:06:59;;;;;;;2.75;2.55;;;27.90;43.00;;;;;;4996697;28;20034;-70
2021/06/11 12:09:24;;;;;;;2.50;2.30;;;27.90;43.40;;;;;;4999553;28;20026;-69
2021/06/11 12:11:50;;;;;;;2.80;2.60;;;27.90;43.60;;;;;;4997939;28;20041;-70
2021/06/11 12:14:15;;;;;;;3.00;2.80;;;28.00;42.80;;;;;;4997469;28;20420;-69
2021/06/11 12:16:41;;;;;;;3.83;2.72;;;28.00;42.50;;;;;;4997801;28;20045;-69
2021/06/11 12:19:07;;;;;;;2.53;2.42;;;28.00;42.70;;;;;;4996261;28;20066;-70
2021/06/11 12:21:33;;;;;;;2.88;2.70;;;28.10;42.80;;;;;;4996695;28;20046;-70
2021/06/11 12:23:59;;;;;;;2.75;2.55;;;28.10;43.10;;;;;;4997373;28;20038;-69
2021/06/11 12:26:25;;;;;;;2.92;2.70;;;28.10;42.50;;;;;;4996757;28;20034;-69
2021/06/11 12:28:52;;;;;;;3.80;2.92;;;28.10;42.40;;;;;;4996163;28;20604;-69
2021/06/11 12:31:18;;;;;;;6.55;2.85;;;28.10;42.50;;;;;;4996061;28;20034;-70
2021/06/11 12:33:44;;;;;;;3.33;3.03;;;28.10;42.50;;;;;;4995800;28;20539;-69
2021/06/11 12:36:10;;;;;;;2.88;2.67;;;28.10;42.40;;;;;;4996825;28;20129;-69
2021/06/11 12:38:36;;;;;;;3.95;2.85;;;28.20;42.50;;;;;;4995777;28;20122;-69
2021/06/11 12:41:04;;;;;;;3.47;3.17;;;28.20;42.30;;;;;;4997735;28;20043;-66
2021/06/11 12:46:17;;;;;;;3.70;3.10;;;28.20;42.60;;;;;;5000079;28;20045;-66
2021/06/11 12:48:43;;;;;;;3.42;3.22;;;28.20;42.50;;;;;;5001251;28;20046;-66
2021/06/11 12:51:09;;;;;;;3.58;3.33;;;28.20;42.40;;;;;;4999917;28;20604;-66
2021/06/11 12:53:34;;;;;;;3.38;3.17;;;28.20;41.60;;;;;;4998852;28;20022;-66